sensor_id;sensor_type;location;lat;lon;timestamp;P1;durP1;ratioP1;P2;durP2;ratioP2
74233;SDS011;62591;55.764;37.718;2024-03-29T00:00:38;16.38;;;8.32;;
74233;SDS011;62591;55.764;37.718;2024-03-29T00:03:05;17.90;;;8.75;;
74233;SDS011;62591;55.764;37.718;2024-03-29T00:05:32;20.42;;;8.02;;
74233;SDS011;62591;55.764;37.718;2024-03-29T00:10:25;24.48;;;8.38;;
74233;SDS011;62591;55.764;37.718;2024-03-29T00:12:53;19.92;;;8.63;;
74233;SDS011;62591;55.764;37.718;2024-03-29T00:15:19;20.75;;;8.52;;
74233;SDS011;62591;55.764;37.718;2024-03-29T00:17:47;19.35;;;8.35;;
74233;SDS011;62591;55.764;37.718;2024-03-29T00:20:14;18.60;;;8.65;;
74233;SDS011;62591;55.764;37.718;2024-03-29T00:22:41;23.58;;;9.27;;
74233;SDS011;62591;55.764;37.718;2024-03-29T00:25:08;17.50;;;8.63;;
74233;SDS011;62591;55.764;37.718;2024-03-29T00:30:01;17.77;;;8.68;;
74233;SDS011;62591;55.764;37.718;2024-03-29T00:32:31;19.40;;;7.60;;
74233;SDS011;62591;55.764;37.718;2024-03-29T00:35:00;17.85;;;9.20;;
74233;SDS011;62591;55.764;37.718;2024-03-29T00:37:29;20.63;;;9.23;;
74233;SDS011;62591;55.764;37.718;2024-03-29T00:39:55;20.85;;;9.13;;
74233;SDS011;62591;55.764;37.718;2024-03-29T00:42:22;19.20;;;8.77;;
74233;SDS011;62591;55.764;37.718;2024-03-29T00:44:49;19.75;;;9.50;;
74233;SDS011;62591;55.764;37.718;2024-03-29T00:47:17;18.55;;;9.43;;
74233;SDS011;62591;55.764;37.718;2024-03-29T00:49:44;26.85;;;9.68;;
74233;SDS011;62591;55.764;37.718;2024-03-29T00:52:13;16.17;;;8.57;;
74233;SDS011;62591;55.764;37.718;2024-03-29T00:54:39;19.48;;;9.10;;
74233;SDS011;62591;55.764;37.718;2024-03-29T00:57:06;22.98;;;9.88;;
74233;SDS011;62591;55.764;37.718;2024-03-29T00:59:33;22.63;;;9.63;;
74233;SDS011;62591;55.764;37.718;2024-03-29T01:02:00;26.13;;;10.40;;
74233;SDS011;62591;55.764;37.718;2024-03-29T01:04:26;23.83;;;9.32;;
74233;SDS011;62591;55.764;37.718;2024-03-29T01:06:53;23.35;;;10.18;;
74233;SDS011;62591;55.764;37.718;2024-03-29T01:09:22;22.58;;;9.85;;
74233;SDS011;62591;55.764;37.718;2024-03-29T01:11:49;21.08;;;10.80;;
74233;SDS011;62591;55.764;37.718;2024-03-29T01:14:16;23.58;;;9.52;;
74233;SDS011;62591;55.764;37.718;2024-03-29T01:16:43;27.77;;;10.93;;
74233;SDS011;62591;55.764;37.718;2024-03-29T01:19:09;23.60;;;9.90;;
74233;SDS011;62591;55.764;37.718;2024-03-29T01:21:36;20.33;;;9.65;;
74233;SDS011;62591;55.764;37.718;2024-03-29T01:24:03;24.38;;;10.00;;
74233;SDS011;62591;55.764;37.718;2024-03-29T01:28:59;19.65;;;9.27;;
74233;SDS011;62591;55.764;37.718;2024-03-29T01:31:26;23.13;;;10.40;;
74233;SDS011;62591;55.764;37.718;2024-03-29T01:33:52;27.38;;;10.77;;
74233;SDS011;62591;55.764;37.718;2024-03-29T01:36:19;21.77;;;9.85;;
74233;SDS011;62591;55.764;37.718;2024-03-29T01:38:47;19.00;;;9.63;;
74233;SDS011;62591;55.764;37.718;2024-03-29T01:41:14;20.38;;;9.48;;
74233;SDS011;62591;55.764;37.718;2024-03-29T01:43:43;21.45;;;10.27;;
74233;SDS011;62591;55.764;37.718;2024-03-29T01:46:11;24.83;;;10.18;;
74233;SDS011;62591;55.764;37.718;2024-03-29T01:48:39;21.77;;;9.70;;
74233;SDS011;62591;55.764;37.718;2024-03-29T01:51:06;19.00;;;10.15;;
74233;SDS011;62591;55.764;37.718;2024-03-29T01:53:39;21.25;;;10.18;;
74233;SDS011;62591;55.764;37.718;2024-03-29T01:56:07;25.13;;;10.30;;
74233;SDS011;62591;55.764;37.718;2024-03-29T01:58:35;28.80;;;11.40;;
74233;SDS011;62591;55.764;37.718;2024-03-29T02:01:06;23.45;;;10.20;;
74233;SDS011;62591;55.764;37.718;2024-03-29T02:03:35;25.85;;;10.13;;
74233;SDS011;62591;55.764;37.718;2024-03-29T02:06:03;24.52;;;10.73;;
74233;SDS011;62591;55.764;37.718;2024-03-29T02:08:32;24.45;;;10.23;;
74233;SDS011;62591;55.764;37.718;2024-03-29T02:11:01;19.70;;;10.20;;
74233;SDS011;62591;55.764;37.718;2024-03-29T02:13:33;24.02;;;10.70;;
74233;SDS011;62591;55.764;37.718;2024-03-29T02:16:01;20.55;;;9.60;;
74233;SDS011;62591;55.764;37.718;2024-03-29T02:18:30;22.83;;;10.25;;
74233;SDS011;62591;55.764;37.718;2024-03-29T02:20:58;21.00;;;10.68;;
74233;SDS011;62591;55.764;37.718;2024-03-29T02:23:27;22.85;;;11.18;;
74233;SDS011;62591;55.764;37.718;2024-03-29T02:25:58;19.35;;;10.60;;
74233;SDS011;62591;55.764;37.718;2024-03-29T02:28:26;22.52;;;10.98;;
74233;SDS011;62591;55.764;37.718;2024-03-29T02:30:54;21.33;;;10.20;;
74233;SDS011;62591;55.764;37.718;2024-03-29T02:33:22;27.25;;;10.77;;
74233;SDS011;62591;55.764;37.718;2024-03-29T02:35:50;18.48;;;10.30;;
74233;SDS011;62591;55.764;37.718;2024-03-29T02:38:18;26.80;;;10.45;;
74233;SDS011;62591;55.764;37.718;2024-03-29T02:43:49;20.77;;;10.80;;
74233;SDS011;62591;55.764;37.718;2024-03-29T02:46:15;22.35;;;9.57;;
74233;SDS011;62591;55.764;37.718;2024-03-29T02:48:43;22.17;;;10.38;;
74233;SDS011;62591;55.764;37.718;2024-03-29T02:51:10;20.80;;;10.70;;
74233;SDS011;62591;55.764;37.718;2024-03-29T02:53:38;26.13;;;9.93;;
74233;SDS011;62591;55.764;37.718;2024-03-29T02:56:04;21.48;;;9.90;;
74233;SDS011;62591;55.764;37.718;2024-03-29T02:58:34;22.05;;;9.68;;
74233;SDS011;62591;55.764;37.718;2024-03-29T03:01:06;17.83;;;8.82;;
74233;SDS011;62591;55.764;37.718;2024-03-29T03:03:34;27.55;;;10.93;;
74233;SDS011;62591;55.764;37.718;2024-03-29T03:06:02;24.92;;;9.63;;
74233;SDS011;62591;55.764;37.718;2024-03-29T03:08:32;16.73;;;9.38;;
74233;SDS011;62591;55.764;37.718;2024-03-29T03:11:22;18.20;;;9.68;;
74233;SDS011;62591;55.764;37.718;2024-03-29T03:13:50;20.00;;;9.55;;
74233;SDS011;62591;55.764;37.718;2024-03-29T03:16:19;22.63;;;9.27;;
74233;SDS011;62591;55.764;37.718;2024-03-29T03:18:47;19.10;;;9.02;;
74233;SDS011;62591;55.764;37.718;2024-03-29T03:21:16;20.13;;;9.55;;
74233;SDS011;62591;55.764;37.718;2024-03-29T03:23:44;21.17;;;9.60;;
74233;SDS011;62591;55.764;37.718;2024-03-29T03:26:12;18.30;;;9.90;;
74233;SDS011;62591;55.764;37.718;2024-03-29T03:28:40;24.33;;;9.23;;
74233;SDS011;62591;55.764;37.718;2024-03-29T03:31:06;18.80;;;8.85;;
74233;SDS011;62591;55.764;37.718;2024-03-29T03:33:36;19.83;;;9.40;;
74233;SDS011;62591;55.764;37.718;2024-03-29T03:36:03;25.10;;;9.35;;
74233;SDS011;62591;55.764;37.718;2024-03-29T03:38:31;19.85;;;9.10;;
74233;SDS011;62591;55.764;37.718;2024-03-29T03:40:59;23.80;;;9.07;;
74233;SDS011;62591;55.764;37.718;2024-03-29T03:43:27;27.35;;;12.52;;
74233;SDS011;62591;55.764;37.718;2024-03-29T03:45:59;24.23;;;10.27;;
74233;SDS011;62591;55.764;37.718;2024-03-29T03:48:27;20.27;;;10.80;;
74233;SDS011;62591;55.764;37.718;2024-03-29T03:50:56;24.25;;;13.43;;
74233;SDS011;62591;55.764;37.718;2024-03-29T03:53:24;23.42;;;10.80;;
74233;SDS011;62591;55.764;37.718;2024-03-29T03:55:50;30.20;;;10.90;;
74233;SDS011;62591;55.764;37.718;2024-03-29T03:58:18;18.80;;;8.77;;
74233;SDS011;62591;55.764;37.718;2024-03-29T04:00:46;16.00;;;9.07;;
74233;SDS011;62591;55.764;37.718;2024-03-29T04:03:14;25.25;;;9.02;;
74233;SDS011;62591;55.764;37.718;2024-03-29T04:05:42;25.17;;;9.88;;
74233;SDS011;62591;55.764;37.718;2024-03-29T04:08:10;21.08;;;8.45;;
74233;SDS011;62591;55.764;37.718;2024-03-29T04:10:39;18.98;;;8.75;;
74233;SDS011;62591;55.764;37.718;2024-03-29T04:13:07;24.50;;;10.80;;
74233;SDS011;62591;55.764;37.718;2024-03-29T04:15:34;20.83;;;9.32;;
74233;SDS011;62591;55.764;37.718;2024-03-29T04:18:01;18.40;;;8.98;;
74233;SDS011;62591;55.764;37.718;2024-03-29T04:20:29;22.33;;;8.98;;
74233;SDS011;62591;55.764;37.718;2024-03-29T04:22:58;20.08;;;9.18;;
74233;SDS011;62591;55.764;37.718;2024-03-29T04:25:27;23.45;;;9.90;;
74233;SDS011;62591;55.764;37.718;2024-03-29T04:27:54;21.83;;;8.98;;
74233;SDS011;62591;55.764;37.718;2024-03-29T04:30:22;15.85;;;8.25;;
74233;SDS011;62591;55.764;37.718;2024-03-29T23:27:58;4.20;;;2.28;;
74233;SDS011;62591;55.764;37.718;2024-03-29T23:30:26;4.22;;;2.75;;
74233;SDS011;62591;55.764;37.718;2024-03-29T23:32:55;3.40;;;2.28;;
74233;SDS011;62591;55.764;37.718;2024-03-29T23:35:23;3.17;;;1.98;;
74233;SDS011;62591;55.764;37.718;2024-03-29T23:37:51;4.72;;;2.47;;
74233;SDS011;62591;55.764;37.718;2024-03-29T23:40:19;4.10;;;2.72;;
74233;SDS011;62591;55.764;37.718;2024-03-29T23:42:46;5.47;;;2.47;;
74233;SDS011;62591;55.764;37.718;2024-03-29T23:45:15;3.45;;;2.38;;
74233;SDS011;62591;55.764;37.718;2024-03-29T23:47:42;5.43;;;2.67;;
74233;SDS011;62591;55.764;37.718;2024-03-29T23:50:09;4.00;;;2.70;;
74233;SDS011;62591;55.764;37.718;2024-03-29T23:52:36;3.95;;;3.05;;
74233;SDS011;62591;55.764;37.718;2024-03-29T23:55:04;3.45;;;2.55;;
